Time;durP1;ratioP1;P1;durP2;ratioP2;P2;SDS_P1;SDS_P2;PMS_P1;PMS_P2;Temp;Humidity;BMP_temperature;BMP_pressure;BME280_temperature;BME280_humidity;BME280_pressure;Samples;Min_cycle;Max_cycle;Signal;HPM_P1;HPM_P2
2021/03/20 00:00:43;;;;;;;12.33;8.57;;;2.60;99.90;;;;;;4974006;28;20198;-76
2021/03/20 00:03:28;;;;;;;12.50;8.40;;;2.60;99.90;;;;;;4969150;28;20209;-77
2021/03/20 00:06:14;;;;;;;16.77;8.83;;;2.60;99.90;;;;;;4967849;28;20270;-77
2021/03/20 00:09:05;;;;;;;16.03;8.43;;;2.60;99.90;;;;;;4963420;28;20256;-77
2021/03/20 00:11:50;;;;;;;11.60;7.33;;;2.50;99.90;;;;;;4957155;28;20265;-77
2021/03/20 00:14:36;;;;;;;12.60;8.03;;;2.50;99.90;;;;;;4959323;28;20704;-77
2021/03/20 00:17:21;;;;;;;11.67;7.43;;;2.50;99.90;;;;;;4964821;28;20570;-77
2021/03/20 00:20:08;;;;;;;14.00;8.13;;;2.50;99.90;;;;;;4959603;28;20350;-77
2021/03/20 00:22:53;;;;;;;13.63;9.27;;;2.50;99.90;;;;;;4955603;28;20257;-77
2021/03/20 00:25:39;;;;;;;12.60;8.00;;;2.50;99.90;;;;;;4963618;28;20222;-77
2021/03/20 00:28:27;;;;;;;16.17;7.63;;;2.40;99.90;;;;;;4966038;28;20241;-76
2021/03/20 00:31:13;;;;;;;14.53;9.00;;;2.40;99.90;;;;;;4970520;28;20209;-76
2021/03/20 00:33:58;;;;;;;13.20;9.37;;;2.40;99.90;;;;;;4974008;28;20258;-77
2021/03/20 00:36:42;;;;;;;13.07;9.80;;;2.40;99.90;;;;;;4972725;28;20276;-77
2021/03/20 00:39:27;;;;;;;14.07;8.90;;;2.40;99.90;;;;;;4966164;28;20209;-77
2021/03/20 00:42:13;;;;;;;13.57;8.60;;;2.40;99.90;;;;;;4969557;28;20361;-77
2021/03/20 00:44:58;;;;;;;14.93;9.20;;;2.40;99.90;;;;;;4972246;28;20209;-76
2021/03/20 00:47:43;;;;;;;11.90;7.83;;;2.40;99.90;;;;;;4971674;28;20264;-75
2021/03/20 00:50:28;;;;;;;12.23;8.47;;;2.40;99.90;;;;;;4971325;28;20222;-76
2021/03/20 00:53:13;;;;;;;17.63;9.87;;;2.40;99.90;;;;;;4970236;28;20213;-76
2021/03/20 00:55:59;;;;;;;14.30;8.10;;;2.40;99.90;;;;;;4971156;28;20258;-76
2021/03/20 00:58:45;;;;;;;13.97;8.37;;;2.40;99.90;;;;;;4969873;28;20257;-76
2021/03/20 01:01:29;;;;;;;12.77;8.50;;;2.40;99.90;;;;;;4957075;28;20210;-76
2021/03/20 01:04:14;;;;;;;14.73;8.70;;;2.50;99.90;;;;;;4968309;28;20225;-76
2021/03/20 01:06:59;;;;;;;13.77;8.83;;;2.50;99.90;;;;;;4971086;28;20271;-76
2021/03/20 01:09:43;;;;;;;12.40;8.03;;;2.60;99.90;;;;;;4963360;28;20217;-76
2021/03/20 01:12:28;;;;;;;13.43;8.90;;;2.50;99.90;;;;;;4973065;28;20217;-76
2021/03/20 01:15:16;;;;;;;12.80;8.00;;;2.60;99.90;;;;;;4956505;28;20233;-75
2021/03/20 01:18:01;;;;;;;13.43;7.50;;;2.60;99.90;;;;;;4965474;28;20242;-75
2021/03/20 01:20:47;;;;;;;12.90;7.53;;;2.60;99.90;;;;;;4962829;28;20280;-76
2021/03/20 01:23:32;;;;;;;13.60;6.63;;;2.60;99.90;;;;;;4957469;28;20202;-76
2021/03/20 01:26:18;;;;;;;10.47;6.47;;;2.60;99.90;;;;;;4964560;28;20253;-76
2021/03/20 01:29:03;;;;;;;12.53;6.70;;;2.50;99.90;;;;;;4966377;28;20639;-76
2021/03/20 01:31:51;;;;;;;11.53;6.60;;;2.50;99.90;;;;;;4953113;28;20222;-76
2021/03/20 01:34:36;;;;;;;10.37;7.37;;;2.50;99.90;;;;;;4958522;28;20270;-76
2021/03/20 01:37:20;;;;;;;13.63;6.80;;;2.50;99.90;;;;;;4957693;28;20253;-76
2021/03/20 01:40:08;;;;;;;12.70;7.40;;;2.50;99.90;;;;;;4971809;28;20697;-76
2021/03/20 01:42:53;;;;;;;11.43;7.10;;;2.40;99.90;;;;;;4971128;28;20280;-76
2021/03/20 01:45:40;;;;;;;13.53;6.73;;;2.40;99.90;;;;;;4959150;28;20296;-76
2021/03/20 01:48:34;;;;;;;13.47;6.97;;;2.30;99.90;;;;;;4961930;28;20272;-76
2021/03/20 01:51:19;;;;;;;11.63;6.90;;;2.30;99.90;;;;;;4963807;28;20214;-77
2021/03/20 01:54:04;;;;;;;11.77;6.83;;;2.20;99.90;;;;;;4965753;28;20574;-75
2021/03/20 01:56:50;;;;;;;10.10;6.50;;;2.20;99.90;;;;;;4961087;28;20253;-75
2021/03/20 01:59:35;;;;;;;11.13;7.10;;;2.20;99.90;;;;;;4968172;28;20213;-75
2021/03/20 02:02:20;;;;;;;11.37;7.00;;;2.10;99.90;;;;;;4971347;28;20558;-75
2021/03/20 02:05:13;;;;;;;11.10;6.77;;;2.10;99.90;;;;;;4955467;28;20234;-75
2021/03/20 02:08:01;;;;;;;11.83;7.03;;;2.00;99.90;;;;;;4957707;28;20265;-75
2021/03/20 02:10:47;;;;;;;10.53;6.97;;;2.00;99.90;;;;;;4956246;28;20262;-75
2021/03/20 02:13:38;;;;;;;11.30;6.47;;;2.00;99.90;;;;;;4956006;28;20966;-75
2021/03/20 02:16:28;;;;;;;10.13;6.10;;;1.90;99.90;;;;;;4966330;28;20245;-75
2021/03/20 02:19:24;;;;;;;8.53;5.37;;;1.80;99.90;;;;;;4968635;28;20314;-75
2021/03/20 02:22:15;;;;;;;11.10;6.03;;;1.80;99.90;;;;;;4970447;28;20214;-75
2021/03/20 02:25:31;;;;;;;9.53;6.00;;;1.70;99.90;;;;;;4970981;28;20397;-75
2021/03/20 02:29:07;;;;;;;8.17;5.60;;;1.70;99.90;;;;;;4965499;28;20698;-75
2021/03/20 02:32:17;;;;;;;10.00;5.83;;;1.60;99.90;;;;;;4959661;28;20800;-75
2021/03/20 02:35:08;;;;;;;10.27;6.27;;;1.50;99.90;;;;;;4964017;28;20640;-75
2021/03/20 02:38:00;;;;;;;10.10;6.30;;;1.50;99.90;;;;;;4962371;28;20260;-75
2021/03/20 02:40:56;;;;;;;11.50;6.43;;;1.40;99.90;;;;;;4976986;28;20269;-75
2021/03/20 02:43:47;;;;;;;10.80;6.63;;;1.40;99.90;;;;;;4966237;28;20262;-75
2021/03/20 02:46:37;;;;;;;11.43;6.40;;;1.30;99.90;;;;;;4975743;28;20301;-75
2021/03/20 02:49:29;;;;;;;12.77;8.43;;;1.30;99.90;;;;;;4975401;28;20346;-75
2021/03/20 02:52:20;;;;;;;12.30;7.47;;;1.20;99.90;;;;;;4969251;28;20275;-75
2021/03/20 02:55:11;;;;;;;11.90;6.80;;;1.20;99.90;;;;;;4976938;28;20237;-75
2021/03/20 02:58:01;;;;;;;15.13;7.83;;;1.10;99.90;;;;;;4978620;28;20217;-75
2021/03/20 03:00:50;;;;;;;13.47;7.00;;;1.10;99.90;;;;;;4971100;28;20266;-75
2021/03/20 03:03:38;;;;;;;12.17;6.83;;;1.00;99.90;;;;;;4978619;28;20289;-75
2021/03/20 03:06:28;;;;;;;8.77;5.73;;;1.00;99.90;;;;;;4978717;28;20226;-76
2021/03/20 03:09:17;;;;;;;9.60;5.60;;;0.90;99.90;;;;;;4977930;28;20261;-76
2021/03/20 03:12:05;;;;;;;9.70;6.10;;;0.80;99.90;;;;;;4979751;28;20252;-76
2021/03/20 03:14:56;;;;;;;7.60;4.83;;;0.80;99.90;;;;;;4972569;28;20226;-76
2021/03/20 03:17:49;;;;;;;10.50;6.40;;;0.70;99.90;;;;;;4978511;28;20262;-76
2021/03/20 03:20:39;;;;;;;10.60;6.57;;;0.60;99.90;;;;;;4977264;28;20214;-75
2021/03/20 03:23:29;;;;;;;11.27;6.97;;;0.50;99.90;;;;;;4978441;28;20213;-76
2021/03/20 03:26:21;;;;;;;9.60;6.13;;;0.50;99.90;;;;;;4974871;28;20814;-76
2021/03/20 03:29:11;;;;;;;10.17;6.27;;;0.40;99.90;;;;;;4973520;28;20579;-75
2021/03/20 03:32:04;;;;;;;13.77;7.27;;;0.40;99.90;;;;;;4963747;28;20241;-75
2021/03/20 03:34:53;;;;;;;12.43;6.50;;;0.40;99.90;;;;;;4969474;28;20298;-75
2021/03/20 03:37:48;;;;;;;9.67;5.73;;;0.30;99.90;;;;;;4960641;28;20260;-75
2021/03/20 03:40:40;;;;;;;11.20;6.90;;;0.30;99.90;;;;;;4968133;28;20254;-75
2021/03/20 03:43:26;;;;;;;10.20;6.50;;;0.20;99.90;;;;;;4965253;28;20270;-75
2021/03/20 03:46:12;;;;;;;12.07;6.67;;;0.10;99.90;;;;;;4969970;28;20569;-75
2021/03/20 03:49:03;;;;;;;11.30;6.50;;;0.10;99.90;;;;;;4962003;28;20243;-75
2021/03/20 03:51:48;;;;;;;12.43;6.83;;;0.00;99.90;;;;;;4958983;28;20261;-75
2021/03/20 03:54:34;;;;;;;10.50;5.97;;;0.00;99.90;;;;;;4967973;28;20586;-75
2021/03/20 03:57:49;;;;;;;11.63;6.20;;;-0.10;99.90;;;;;;4972160;28;20301;-75
2021/03/20 04:00:39;;;;;;;11.97;7.00;;;-0.10;99.90;;;;;;4967878;28;20270;-75
2021/03/20 04:03:54;;;;;;;13.20;6.30;;;-0.20;99.90;;;;;;4956110;28;20713;-75
2021/03/20 04:07:07;;;;;;;9.40;6.20;;;-0.30;99.90;;;;;;4967605;28;20225;-75
2021/03/20 04:10:02;;;;;;;11.40;6.90;;;-0.40;99.90;;;;;;4963782;28;20269;-75
2021/03/20 04:12:56;;;;;;;11.23;6.30;;;-0.40;99.90;;;;;;4954184;28;20213;-75
2021/03/20 04:15:57;;;;;;;12.57;7.10;;;-0.40;99.90;;;;;;4952972;28;20233;-75
2021/03/20 04:18:49;;;;;;;11.37;6.50;;;-0.50;99.90;;;;;;4972111;28;20265;-75
2021/03/20 04:21:40;;;;;;;10.73;6.80;;;-0.60;99.90;;;;;;4965741;28;20730;-75
2021/03/20 04:24:34;;;;;;;15.87;8.13;;;-0.60;99.90;;;;;;4958035;28;20322;-75
2021/03/20 04:27:23;;;;;;;13.43;7.30;;;-0.70;99.90;;;;;;4964914;28;20213;-75
2021/03/20 04:30:15;;;;;;;13.73;8.03;;;-0.70;99.90;;;;;;4966805;28;20209;-75
2021/03/20 04:33:06;;;;;;;15.43;7.87;;;-0.70;99.90;;;;;;4971067;28;20217;-75
2021/03/20 04:35:56;;;;;;;15.00;7.50;;;-0.70;99.90;;;;;;4965793;28;20234;-75
2021/03/20 04:38:44;;;;;;;11.43;7.07;;;-0.80;99.90;;;;;;4972267;28;20293;-75
2021/03/20 04:41:29;;;;;;;13.23;7.30;;;-0.80;99.90;;;;;;4970308;28;20241;-74
2021/03/20 04:44:14;;;;;;;12.10;7.10;;;-0.80;99.90;;;;;;4954716;28;20271;-75
2021/03/20 04:47:00;;;;;;;12.27;7.30;;;-0.80;99.90;;;;;;4956305;28;20270;-75
2021/03/20 04:49:49;;;;;;;12.80;7.17;;;-0.90;99.90;;;;;;4969588;28;20262;-75
2021/03/20 04:52:38;;;;;;;11.07;6.63;;;-0.90;99.90;;;;;;4963084;28;20257;-74
2021/03/20 04:55:23;;;;;;;12.20;7.33;;;-0.80;99.90;;;;;;4958611;28;20305;-75
2021/03/20 04:58:15;;;;;;;14.33;7.70;;;-0.90;99.90;;;;;;4972147;28;20257;-75
2021/03/20 05:01:06;;;;;;;14.27;7.80;;;-0.80;99.90;;;;;;4965287;28;20213;-75
2021/03/20 05:04:00;;;;;;;12.83;6.67;;;-0.80;99.90;;;;;;4964017;28;20209;-75
2021/03/20 05:06:46;;;;;;;11.03;6.63;;;-0.80;99.90;;;;;;4961083;28;20241;-75
2021/03/20 05:09:31;;;;;;;13.93;7.90;;;-0.80;99.90;;;;;;4958794;28;20576;-75
2021/03/20 05:12:23;;;;;;;13.23;6.87;;;-0.80;99.90;;;;;;4969217;28;20201;-77
2021/03/20 05:15:23;;;;;;;12.43;6.97;;;-0.80;99.90;;;;;;4961757;28;20274;-75
2021/03/20 05:18:08;;;;;;;12.33;6.73;;;-0.80;99.90;;;;;;4997263;28;20531;-75
2021/03/20 05:20:54;;;;;;;11.23;6.67;;;-0.80;99.90;;;;;;4997001;28;20254;-74
2021/03/20 05:23:39;;;;;;;13.27;6.97;;;-0.80;99.90;;;;;;4988849;28;20203;-75
2021/03/20 05:26:24;;;;;;;13.93;6.40;;;-0.80;99.90;;;;;;4965771;28;20303;-75
2021/03/20 05:29:09;;;;;;;15.43;7.53;;;-0.80;99.90;;;;;;4968950;28;20824;-75
2021/03/20 05:31:55;;;;;;;9.87;5.97;;;-0.90;99.90;;;;;;4966461;28;20257;-75
2021/03/20 05:34:42;;;;;;;11.40;7.87;;;-0.90;99.90;;;;;;4965221;28;20885;-75
2021/03/20 05:37:31;;;;;;;11.93;6.50;;;-1.00;99.90;;;;;;4965149;28;20213;-77
2021/03/20 05:40:23;;;;;;;14.50;7.40;;;-1.00;99.90;;;;;;4967078;28;20204;-75
2021/03/20 05:43:23;;;;;;;14.40;7.40;;;-1.00;99.90;;;;;;4964658;28;20462;-77
2021/03/20 05:46:22;;;;;;;13.17;7.23;;;-1.10;99.90;;;;;;4966179;28;20229;-75
2021/03/20 05:49:35;;;;;;;12.07;6.80;;;-1.10;99.90;;;;;;4964975;28;20337;-77
2021/03/20 05:52:39;;;;;;;11.47;7.03;;;-1.20;99.90;;;;;;4961201;28;20298;-75
2021/03/20 05:55:31;;;;;;;14.37;8.20;;;-1.20;99.90;;;;;;4967308;28;20292;-75
2021/03/20 05:58:34;;;;;;;14.50;7.73;;;-1.30;99.90;;;;;;4964714;28;20311;-77
2021/03/20 06:01:40;;;;;;;11.87;7.23;;;-1.30;99.90;;;;;;4966446;28;20222;-77
2021/03/20 06:04:35;;;;;;;10.53;6.43;;;-1.30;99.90;;;;;;4964187;28;20285;-76
2021/03/20 06:07:47;;;;;;;15.47;7.67;;;-1.40;99.90;;;;;;4964806;28;20213;-76
2021/03/20 06:10:42;;;;;;;13.70;7.80;;;-1.40;99.90;;;;;;4970105;28;20205;-76
2021/03/20 06:13:41;;;;;;;15.30;7.70;;;-1.40;99.90;;;;;;4968959;28;20214;-74
2021/03/20 06:16:30;;;;;;;14.43;8.67;;;-1.40;99.90;;;;;;4965422;28;20285;-75
2021/03/20 06:19:36;;;;;;;13.33;8.37;;;-1.50;99.90;;;;;;4968973;28;20257;-75
2021/03/20 06:22:53;;;;;;;15.07;8.20;;;-1.40;99.90;;;;;;4966258;28;20209;-75
2021/03/20 06:25:56;;;;;;;15.97;9.20;;;-1.50;99.90;;;;;;4969007;28;20276;-75
2021/03/20 06:28:46;;;;;;;18.80;9.03;;;-1.50;99.90;;;;;;4957563;28;20209;-75
2021/03/20 06:31:35;;;;;;;14.37;8.57;;;-1.50;99.90;;;;;;4972296;28;20216;-76
2021/03/20 06:34:25;;;;;;;14.10;8.83;;;-1.40;99.90;;;;;;4969662;28;20681;-75
2021/03/20 06:37:15;;;;;;;17.27;9.73;;;-1.40;99.90;;;;;;4968529;28;20225;-75
2021/03/20 06:40:05;;;;;;;17.27;9.30;;;-1.40;99.90;;;;;;4970164;28;20201;-75
2021/03/20 06:42:52;;;;;;;19.07;9.40;;;-1.40;99.90;;;;;;4969955;28;20213;-77
2021/03/20 06:45:37;;;;;;;17.03;9.40;;;-1.40;99.90;;;;;;4967251;28;20603;-77
2021/03/20 06:48:24;;;;;;;18.27;10.03;;;-1.30;99.90;;;;;;4969108;28;20265;-77
2021/03/20 06:51:09;;;;;;;18.20;9.13;;;-1.30;99.90;;;;;;4965102;28;20545;-77
2021/03/20 06:53:57;;;;;;;15.77;9.10;;;-1.20;99.90;;;;;;4965322;28;20294;-77
2021/03/20 06:56:46;;;;;;;18.17;9.20;;;-1.20;99.90;;;;;;4970518;28;20629;-77
2021/03/20 06:59:31;;;;;;;15.73;8.93;;;-1.20;99.90;;;;;;4967929;28;20237;-76
2021/03/20 07:02:24;;;;;;;14.87;8.10;;;-1.10;99.90;;;;;;4970096;28;20261;-77
2021/03/20 07:05:21;;;;;;;17.07;9.13;;;-1.10;99.90;;;;;;4970184;28;20845;-77
2021/03/20 07:08:27;;;;;;;16.33;9.73;;;-1.00;99.90;;;;;;4970489;28;20238;-77
2021/03/20 07:11:23;;;;;;;18.97;9.07;;;-1.00;99.90;;;;;;4970298;28;20205;-76
2021/03/20 07:14:12;;;;;;;18.60;9.37;;;-1.00;99.90;;;;;;4966660;28;20648;-77
2021/03/20 07:16:59;;;;;;;16.63;10.17;;;-1.20;99.90;;;;;;4970144;28;20620;-77
2021/03/20 07:19:52;;;;;;;16.70;10.10;;;-0.90;99.90;;;;;;4971684;28;20333;-76
2021/03/20 07:22:42;;;;;;;17.20;10.17;;;-0.80;99.90;;;;;;4971714;28;20241;-77
2021/03/20 07:25:31;;;;;;;15.40;9.17;;;-0.80;99.90;;;;;;4965423;28;20306;-77
2021/03/20 07:28:18;;;;;;;15.07;9.10;;;-0.70;99.90;;;;;;4969593;28;20213;-76
2021/03/20 07:31:08;;;;;;;21.43;10.90;;;-0.60;99.90;;;;;;4970601;28;20286;-77
2021/03/20 07:33:54;;;;;;;22.73;11.53;;;-0.60;99.90;;;;;;4967306;28;20287;-77
2021/03/20 07:36:41;;;;;;;18.67;10.37;;;-0.50;99.90;;;;;;4968355;28;20331;-77
2021/03/20 07:39:26;;;;;;;19.33;9.97;;;-0.50;99.90;;;;;;4969868;28;20212;-77
2021/03/20 07:42:28;;;;;;;24.40;9.27;;;-0.40;99.90;;;;;;4968313;28;20286;-77
2021/03/20 07:45:28;;;;;;;17.53;8.57;;;-0.30;99.90;;;;;;4967505;28;20237;-77
2021/03/20 07:48:23;;;;;;;14.80;8.40;;;-0.20;99.90;;;;;;4968988;28;20213;-77
2021/03/20 07:51:12;;;;;;;12.97;7.23;;;-0.10;99.90;;;;;;4970381;28;22359;-77
2021/03/20 07:53:57;;;;;;;11.20;6.07;;;-0.10;99.90;;;;;;4970116;28;20749;-77
2021/03/20 07:56:42;;;;;;;11.50;6.40;;;0.00;99.90;;;;;;4969262;28;20236;-77
2021/03/20 07:59:30;;;;;;;7.73;5.20;;;0.10;99.90;;;;;;4967173;28;20260;-77
2021/03/20 08:02:29;;;;;;;8.43;5.07;;;0.20;99.90;;;;;;4968386;28;20286;-76
2021/03/20 08:05:29;;;;;;;9.40;5.33;;;0.30;99.90;;;;;;4968627;28;20370;-77
2021/03/20 08:08:21;;;;;;;11.20;6.00;;;0.30;99.90;;;;;;4966509;28;20260;-76
2021/03/20 08:11:22;;;;;;;10.07;5.80;;;0.40;99.90;;;;;;4968827;28;20282;-77
2021/03/20 08:14:13;;;;;;;11.63;6.20;;;0.50;99.90;;;;;;4970280;28;20636;-77
2021/03/20 08:16:58;;;;;;;10.70;6.47;;;0.60;99.90;;;;;;4967630;28;20238;-77
2021/03/20 08:19:43;;;;;;;10.10;6.67;;;0.60;99.90;;;;;;4969083;28;20221;-77
2021/03/20 08:22:55;;;;;;;12.57;6.47;;;0.70;99.90;;;;;;4968978;28;20257;-77
2021/03/20 08:25:54;;;;;;;10.50;6.17;;;0.80;99.90;;;;;;4965986;28;20225;-77
2021/03/20 08:28:49;;;;;;;10.87;5.93;;;0.90;99.90;;;;;;4969113;28;20205;-77
2021/03/20 08:31:56;;;;;;;10.40;6.40;;;1.00;99.90;;;;;;4965227;28;20576;-77
2021/03/20 08:34:49;;;;;;;9.17;5.50;;;1.10;99.90;;;;;;4967526;28;20213;-77
2021/03/20 08:37:47;;;;;;;13.13;6.53;;;1.20;99.90;;;;;;4962054;28;20210;-77
2021/03/20 08:40:46;;;;;;;8.13;5.70;;;1.30;99.90;;;;;;4961509;28;20702;-77
2021/03/20 08:43:56;;;;;;;9.27;4.93;;;1.40;99.90;;;;;;4967076;28;20245;-77
2021/03/20 08:46:59;;;;;;;9.90;5.90;;;1.60;99.90;;;;;;4961339;28;20233;-77
2021/03/20 08:49:56;;;;;;;11.40;6.23;;;1.80;99.90;;;;;;4969364;28;20249;-77
2021/03/20 08:52:52;;;;;;;8.40;5.40;;;2.10;99.90;;;;;;4962058;28;20382;-77
2021/03/20 08:55:55;;;;;;;10.87;5.17;;;2.40;99.90;;;;;;4969018;28;20248;-75
2021/03/20 08:58:50;;;;;;;10.17;5.03;;;2.80;99.90;;;;;;4967040;28;20213;-75
2021/03/20 09:01:39;;;;;;;7.37;4.83;;;3.20;99.90;;;;;;4966188;28;20210;-76
2021/03/20 09:04:26;;;;;;;8.87;5.00;;;3.60;99.90;;;;;;4966225;28;20245;-76
2021/03/20 09:07:21;;;;;;;9.10;4.53;;;4.00;99.90;;;;;;4969627;28;20242;-76
2021/03/20 09:10:16;;;;;;;7.73;4.43;;;4.40;99.90;;;;;;4964793;28;20213;-76
2021/03/20 09:13:20;;;;;;;6.60;4.20;;;4.80;99.90;;;;;;4963962;28;20262;-76
2021/03/20 09:16:09;;;;;;;8.33;4.27;;;5.20;99.90;;;;;;4964198;28;20244;-76
2021/03/20 09:18:55;;;;;;;7.07;4.10;;;5.50;99.90;;;;;;4966667;28;20214;-77
2021/03/20 09:21:41;;;;;;;7.00;4.83;;;5.90;99.90;;;;;;4967504;28;20289;-77
2021/03/20 09:24:29;;;;;;;8.43;4.60;;;6.20;99.90;;;;;;4968751;28;20217;-76
2021/03/20 09:27:54;;;;;;;6.90;4.40;;;6.60;99.90;;;;;;4969223;28;20210;-77
2021/03/20 09:30:41;;;;;;;8.17;4.47;;;7.00;99.90;;;;;;4970845;28;20217;-77
2021/03/20 09:33:35;;;;;;;7.03;4.57;;;7.50;99.90;;;;;;4969576;28;20217;-77
2021/03/20 09:36:42;;;;;;;6.03;3.53;;;7.90;99.90;;;;;;4973637;28;20274;-77
2021/03/20 09:39:39;;;;;;;6.97;4.53;;;8.60;99.90;;;;;;4963532;28;20270;-77
2021/03/20 09:42:35;;;;;;;7.43;5.03;;;9.50;99.90;;;;;;4958637;28;20358;-78
2021/03/20 09:45:28;;;;;;;7.90;5.33;;;10.50;99.90;;;;;;4969192;28;20781;-78
2021/03/20 09:48:41;;;;;;;5.90;4.23;;;11.40;99.90;;;;;;4962606;28;20210;-76
2021/03/20 09:51:57;;;;;;;4.20;3.80;;;12.70;99.90;;;;;;4956678;28;20198;-78
2021/03/20 09:54:45;;;;;;;4.20;3.70;;;13.80;99.90;;;;;;4973465;28;20781;-78
2021/03/20 09:57:50;;;;;;;3.80;3.30;;;14.80;94.60;;;;;;4968368;28;20709;-78
2021/03/20 10:01:15;;;;;;;6.13;3.80;;;15.70;91.80;;;;;;4957120;28;20242;-77
2021/03/20 10:04:29;;;;;;;3.93;3.10;;;16.60;87.90;;;;;;4966134;28;20230;-78
2021/03/20 10:07:39;;;;;;;3.57;2.97;;;17.50;82.70;;;;;;4966529;28;20300;-78
2021/03/20 10:10:43;;;;;;;5.40;3.90;;;18.30;72.10;;;;;;4963965;28;20233;-78
2021/03/20 10:13:41;;;;;;;5.73;4.70;;;18.90;73.50;;;;;;4961551;28;20372;-77
2021/03/20 10:16:29;;;;;;;5.23;3.87;;;19.50;67.80;;;;;;4961040;28;20230;-77
2021/03/20 10:19:14;;;;;;;5.37;4.07;;;19.90;63.70;;;;;;4972975;28;20781;-77
2021/03/20 10:22:00;;;;;;;3.67;3.20;;;20.30;59.80;;;;;;4975035;28;20221;-78
2021/03/20 10:24:49;;;;;;;4.77;2.90;;;20.70;58.00;;;;;;4968115;28;20707;-78
2021/03/20 10:27:39;;;;;;;4.10;3.37;;;21.10;60.00;;;;;;4965759;28;20283;-78
2021/03/20 10:30:28;;;;;;;3.57;3.07;;;21.40;56.30;;;;;;4973274;28;20210;-76
2021/03/20 10:33:27;;;;;;;3.77;3.17;;;21.80;55.50;;;;;;4971652;28;20808;-78
2021/03/20 10:36:26;;;;;;;3.10;2.87;;;22.20;58.10;;;;;;4965887;28;20268;-78
2021/03/20 10:39:25;;;;;;;3.80;3.00;;;22.60;51.80;;;;;;4970156;28;20216;-77
2021/03/20 10:42:20;;;;;;;3.50;3.20;;;22.90;52.90;;;;;;4967079;28;20352;-77
2021/03/20 10:45:14;;;;;;;4.23;3.50;;;23.20;48.40;;;;;;4971632;28;20707;-77
2021/03/20 10:48:02;;;;;;;4.63;3.33;;;23.40;50.70;;;;;;4971757;28;20713;-76
2021/03/20 10:50:49;;;;;;;3.83;3.30;;;23.50;48.60;;;;;;4972839;28;20231;-76
2021/03/20 10:53:41;;;;;;;3.97;3.30;;;23.70;48.30;;;;;;4971371;28;20282;-77
2021/03/20 10:56:30;;;;;;;5.13;3.67;;;24.00;48.70;;;;;;4970336;28;20303;-77
2021/03/20 10:59:22;;;;;;;3.57;3.10;;;24.30;49.30;;;;;;4972336;28;20208;-77
2021/03/20 11:02:30;;;;;;;5.10;3.80;;;24.50;50.00;;;;;;4967837;28;20292;-77
2021/03/20 11:05:31;;;;;;;3.70;3.30;;;24.70;50.50;;;;;;4969086;28;20298;-77
2021/03/20 11:08:28;;;;;;;3.90;3.30;;;25.00;47.00;;;;;;4971307;28;20212;-77
2021/03/20 11:11:23;;;;;;;4.23;3.10;;;25.10;47.40;;;;;;4959501;28;20226;-76
2021/03/20 11:14:12;;;;;;;4.20;3.43;;;25.30;46.70;;;;;;4966623;28;20212;-76
2021/03/20 11:17:03;;;;;;;5.70;3.60;;;25.30;47.70;;;;;;4973920;28;20238;-78
2021/03/20 11:19:57;;;;;;;3.90;3.60;;;25.70;46.10;;;;;;4970800;28;20631;-78
2021/03/20 11:22:43;;;;;;;4.57;3.23;;;26.00;47.50;;;;;;4972482;28;20219;-76
2021/03/20 11:25:33;;;;;;;3.67;3.37;;;26.40;48.20;;;;;;4969344;28;20228;-77
2021/03/20 11:28:30;;;;;;;3.90;3.23;;;26.80;46.80;;;;;;4969544;28;20219;-76
2021/03/20 11:31:17;;;;;;;5.07;3.93;;;27.20;47.00;;;;;;4969025;28;20750;-76
2021/03/20 11:34:05;;;;;;;5.15;3.78;;;27.50;42.70;;;;;;4959932;28;20251;-77
2021/03/20 11:36:50;;;;;;;3.75;3.45;;;27.80;45.10;;;;;;4964090;28;20300;-76
2021/03/20 11:39:36;;;;;;;5.30;3.53;;;28.00;45.20;;;;;;4963311;28;20336;-78
2021/03/20 11:42:25;;;;;;;3.80;3.40;;;28.20;42.90;;;;;;4970213;28;20303;-77
2021/03/20 11:45:22;;;;;;;3.45;2.97;;;28.40;43.90;;;;;;4963342;28;20304;-76
2021/03/20 11:48:15;;;;;;;4.55;3.40;;;28.60;43.10;;;;;;4963021;28;20297;-78
2021/03/20 11:51:02;;;;;;;5.13;4.10;;;28.80;45.30;;;;;;4959823;28;20219;-76
2021/03/20 11:53:50;;;;;;;4.15;3.63;;;28.80;44.00;;;;;;4971862;28;20298;-77
2021/03/20 11:56:38;;;;;;;3.90;3.03;;;28.80;44.60;;;;;;4967258;28;20566;-77
2021/03/20 11:59:47;;;;;;;4.28;3.30;;;28.70;44.20;;;;;;4970904;28;20671;-79
2021/03/20 12:02:39;;;;;;;5.95;4.28;;;28.60;45.20;;;;;;4973341;28;20621;-77
2021/03/20 12:05:30;;;;;;;3.92;3.50;;;28.50;43.50;;;;;;4959567;28;20786;-77
2021/03/20 12:08:35;;;;;;;5.47;3.92;;;28.40;44.20;;;;;;4963028;28;20204;-78
2021/03/20 12:11:22;;;;;;;4.10;3.70;;;28.40;44.40;;;;;;4968878;28;20229;-76
2021/03/20 12:14:30;;;;;;;3.57;3.27;;;28.30;42.30;;;;;;4980625;28;20278;-74
2021/03/20 12:17:19;;;;;;;5.70;3.78;;;28.20;45.40;;;;;;4988750;28;20253;-74
2021/03/20 12:20:07;;;;;;;7.18;3.72;;;28.20;41.50;;;;;;4985640;28;20220;-75
2021/03/20 12:22:54;;;;;;;3.63;3.28;;;28.30;44.60;;;;;;4986960;28;20314;-75
2021/03/20 12:25:49;;;;;;;2.92;2.63;;;28.50;42.70;;;;;;4966642;28;20226;-77
2021/03/20 12:28:37;;;;;;;3.50;2.60;;;28.60;43.80;;;;;;4971251;28;20581;-77
2021/03/20 12:31:30;;;;;;;4.07;3.22;;;28.60;40.60;;;;;;4968523;28;20253;-77
2021/03/20 12:34:33;;;;;;;4.70;3.42;;;28.60;40.90;;;;;;4973322;28;20220;-75
2021/03/20 12:37:20;;;;;;;3.90;3.22;;;28.80;42.40;;;;;;4974915;28;20673;-78
2021/03/20 12:40:06;;;;;;;3.78;2.90;;;28.90;43.60;;;;;;4969558;28;20763;-78
2021/03/20 12:42:52;;;;;;;4.03;2.78;;;29.10;42.90;;;;;;4972053;28;20217;-77
2021/03/20 12:45:38;;;;;;;5.18;3.25;;;29.40;41.70;;;;;;4973279;28;20311;-77
2021/03/20 12:48:27;;;;;;;3.22;2.90;;;29.60;40.40;;;;;;4975042;28;20220;-76
2021/03/20 12:51:19;;;;;;;5.00;3.05;;;29.80;41.40;;;;;;4971588;28;20256;-77
2021/03/20 12:54:04;;;;;;;5.60;2.72;;;30.00;40.30;;;;;;4973985;28;20729;-78
2021/03/20 12:56:49;;;;;;;3.50;2.90;;;30.10;40.20;;;;;;4974940;28;20225;-76
2021/03/20 12:59:34;;;;;;;3.65;2.65;;;30.30;41.00;;;;;;4970002;28;20713;-78
2021/03/20 13:02:20;;;;;;;3.05;2.85;;;30.30;39.70;;;;;;4976555;28;20222;-77
2021/03/20 13:05:07;;;;;;;5.88;2.47;;;30.40;40.50;;;;;;4971725;28;20217;-78
2021/03/20 13:07:52;;;;;;;3.75;2.45;;;30.50;41.00;;;;;;4972683;28;20603;-76
2021/03/20 13:10:38;;;;;;;2.75;2.50;;;30.50;39.30;;;;;;4974441;28;20243;-77
2021/03/20 13:13:23;;;;;;;3.25;2.75;;;30.60;42.50;;;;;;4966273;28;20215;-76
2021/03/20 13:16:07;;;;;;;2.80;2.47;;;30.60;42.00;;;;;;4965056;28;20285;-77
2021/03/20 13:18:52;;;;;;;2.60;2.40;;;30.70;41.40;;;;;;4974959;28;20232;-78
2021/03/20 13:21:38;;;;;;;7.82;3.22;;;30.80;40.90;;;;;;4974059;28;20694;-78
2021/03/20 13:24:23;;;;;;;3.05;2.75;;;30.80;41.40;;;;;;4971249;28;20235;-77
2021/03/20 13:27:09;;;;;;;3.40;2.53;;;30.90;40.90;;;;;;4972187;28;20260;-74
2021/03/20 13:29:54;;;;;;;2.97;2.70;;;31.00;39.20;;;;;;4969970;28;20259;-77
2021/03/20 13:32:39;;;;;;;6.00;2.70;;;31.00;40.80;;;;;;4967054;28;20568;-77
2021/03/20 13:35:27;;;;;;;4.90;2.55;;;31.10;40.20;;;;;;4967286;28;20655;-76
2021/03/20 13:38:14;;;;;;;3.13;2.47;;;31.20;41.70;;;;;;4960875;28;20604;-76
2021/03/20 13:40:59;;;;;;;8.85;2.97;;;31.20;40.70;;;;;;4967243;28;20212;-77
2021/03/20 13:43:44;;;;;;;24.80;4.00;;;31.20;40.60;;;;;;4967983;28;20305;-75
2021/03/20 13:46:29;;;;;;;8.88;3.38;;;31.20;41.50;;;;;;4965183;28;20622;-76
2021/03/20 13:49:13;;;;;;;2.90;2.60;;;31.20;38.00;;;;;;4974898;28;20220;-77
2021/03/20 13:52:00;;;;;;;3.40;2.78;;;31.30;40.50;;;;;;4972661;28;20709;-77
2021/03/20 13:54:47;;;;;;;3.25;2.95;;;31.30;38.30;;;;;;4965586;28;20221;-76
2021/03/20 13:57:33;;;;;;;3.33;3.03;;;31.30;37.90;;;;;;4960830;28;21025;-76
2021/03/20 14:00:18;;;;;;;4.25;3.08;;;31.30;38.70;;;;;;4971163;28;20684;-78
2021/03/20 14:03:03;;;;;;;3.20;2.90;;;31.10;39.00;;;;;;4968941;28;20248;-77
2021/03/20 14:05:48;;;;;;;3.90;2.88;;;30.90;38.20;;;;;;4968975;28;20429;-75
2021/03/20 14:08:34;;;;;;;3.97;2.50;;;30.80;38.10;;;;;;4965288;28;20215;-75
2021/03/20 14:11:20;;;;;;;3.17;2.53;;;30.50;39.90;;;;;;4955797;28;20221;-75
2021/03/20 14:14:05;;;;;;;3.38;2.92;;;30.20;40.10;;;;;;4968729;28;20263;-76
2021/03/20 14:16:49;;;;;;;3.28;2.97;;;29.80;39.70;;;;;;4971841;28;20269;-77
2021/03/20 14:19:34;;;;;;;4.05;3.20;;;29.40;40.60;;;;;;4966228;28;20209;-76
2021/03/20 14:22:19;;;;;;;4.00;2.92;;;28.90;40.60;;;;;;4960047;28;20712;-75
2021/03/20 14:25:05;;;;;;;4.30;3.30;;;28.40;42.40;;;;;;4961347;28;20290;-76
2021/03/20 14:27:51;;;;;;;18.00;3.67;;;27.90;41.10;;;;;;4965855;28;20654;-76
2021/03/20 14:30:38;;;;;;;4.97;3.63;;;27.40;40.50;;;;;;4961375;28;20227;-76
2021/03/20 14:33:28;;;;;;;8.63;3.90;;;26.80;41.70;;;;;;4970997;28;20646;-76
2021/03/20 14:36:13;;;;;;;4.50;3.10;;;26.30;42.40;;;;;;4963770;28;20464;-76
2021/03/20 14:38:58;;;;;;;6.43;3.17;;;25.80;43.70;;;;;;4970462;28;20209;-75
2021/03/20 14:41:44;;;;;;;3.53;3.23;;;25.30;43.00;;;;;;4962779;28;20722;-78
2021/03/20 14:44:29;;;;;;;5.07;3.43;;;24.80;45.00;;;;;;4954051;28;20703;-76
2021/03/20 14:47:14;;;;;;;6.67;4.13;;;24.30;47.80;;;;;;4968760;28;20330;-76
2021/03/20 14:49:59;;;;;;;5.60;3.70;;;23.90;46.90;;;;;;4961747;28;20357;-76